createdAt,value
2022-08-02T00:00:11.620Z,101603.84
2022-08-02T00:02:37.942Z,101610.72
2022-08-02T00:05:04.764Z,101606.19
2022-08-02T00:07:31.096Z,101605.88
2022-08-02T00:09:57.433Z,101590.09
2022-08-02T00:12:23.780Z,101594.13
2022-08-02T00:14:50.120Z,101596.28
2022-08-02T00:17:17.829Z,101592.25
2022-08-02T00:19:44.481Z,101596.94
2022-08-02T00:22:11.161Z,101597.41
2022-08-02T00:24:37.828Z,101595.06
2022-08-02T00:27:05.067Z,101609.44
2022-08-02T00:29:36.716Z,101615.16
2022-08-02T00:32:18.296Z,101614.19
2022-08-02T00:34:44.632Z,101606.19
2022-08-02T00:37:10.974Z,101612.91
2022-08-02T00:39:37.297Z,101610.56
2022-08-02T00:42:04.409Z,101614.75
2022-08-02T00:44:30.740Z,101611.22
2022-08-02T00:46:57.100Z,101616.59
2022-08-02T00:49:24.881Z,101615.41
2022-08-02T00:51:51.310Z,101611.53
2022-08-02T00:54:19.296Z,101613.72
2022-08-02T00:56:50.068Z,101607.66
2022-08-02T00:59:17.821Z,101602.78
2022-08-02T01:01:56.028Z,101600.94
2022-08-02T01:04:30.635Z,101600.94
2022-08-02T01:06:58.582Z,101601.78
2022-08-02T01:09:24.931Z,101588.38
2022-08-02T01:11:51.270Z,101589.72
2022-08-02T01:14:17.895Z,101580.34
2022-08-02T01:16:46.410Z,101580.69
2022-08-02T01:19:29.667Z,101573.19
2022-08-02T01:22:05.955Z,101560.63
2022-08-02T01:24:54.928Z,101569.34
2022-08-02T01:27:29.543Z,101578.03
2022-08-02T01:29:59.354Z,101568.00
2022-08-02T01:32:27.838Z,101570.19
2022-08-02T01:34:56.268Z,101572.84
2022-08-02T01:37:24.340Z,101580.88
2022-08-02T01:39:54.370Z,101575.69
2022-08-02T01:42:21.451Z,101577.53
2022-08-02T01:44:49.580Z,101583.75
2022-08-02T01:47:18.559Z,101587.09
2022-08-02T01:49:46.332Z,101576.38
2022-08-02T01:52:13.980Z,101572.69
2022-08-02T01:54:42.116Z,101566.50
2022-08-02T01:57:09.615Z,101572.38
2022-08-02T01:59:36.546Z,101565.03
2022-08-02T02:02:07.324Z,101564.88
2022-08-02T02:04:36.592Z,101557.03
2022-08-02T02:07:03.648Z,101554.16
2022-08-02T02:09:31.235Z,101561.03
2022-08-02T02:12:05.310Z,101560.03
2022-08-02T02:14:40.695Z,101552.03
2022-08-02T02:17:08.015Z,101544.00
2022-08-02T02:19:37.758Z,101546.66
2022-08-02T02:22:04.164Z,101550.50
2022-08-02T02:24:30.995Z,101540.97
2022-08-02T02:26:59.505Z,101538.00
2022-08-02T02:29:28.088Z,101543.00
2022-08-02T02:31:55.140Z,101536.97
2022-08-02T02:34:25.315Z,101521.75
2022-08-02T02:36:53.618Z,101519.25
2022-08-02T02:39:21.293Z,101520.25
2022-08-02T02:41:47.739Z,101508.72
2022-08-02T02:44:16.250Z,101511.38
2022-08-02T02:46:43.891Z,101509.72
2022-08-02T02:49:11.135Z,101515.22
2022-08-02T02:51:39.310Z,101509.88
2022-08-02T02:54:30.158Z,101512.56
2022-08-02T02:56:55.422Z,101511.06
2022-08-02T02:59:21.818Z,101510.25
2022-08-02T03:01:56.809Z,101512.09
2022-08-02T03:04:24.981Z,101520.75
2022-08-02T03:06:51.432Z,101525.97
2022-08-02T03:09:19.114Z,101520.28
2022-08-02T03:11:45.881Z,101515.75
2022-08-02T03:14:12.883Z,101514.75
2022-08-02T03:16:42.556Z,101507.56
2022-08-02T03:19:08.887Z,101507.56
2022-08-02T03:21:35.202Z,101504.88
2022-08-02T03:24:01.528Z,101503.38
2022-08-02T03:26:29.244Z,101504.06
2022-08-02T03:28:55.585Z,101503.56
2022-08-02T03:31:21.979Z,101503.56
2022-08-02T03:33:48.903Z,101494.03
2022-08-02T03:36:16.482Z,101498.53
2022-08-02T03:38:43.748Z,101505.72
2022-08-02T03:41:10.975Z,101500.56
2022-08-02T03:43:39.263Z,101505.25
2022-08-02T03:46:07.562Z,101505.88
2022-08-02T03:48:35.337Z,101506.06
2022-08-02T03:51:01.860Z,101501.91
2022-08-02T03:53:28.453Z,101505.25
2022-08-02T03:55:56.045Z,101502.38
2022-08-02T03:58:23.618Z,101496.69
2022-08-02T04:00:52.575Z,101497.38
2022-08-02T04:03:20.173Z,101496.53
2022-08-02T04:06:03.557Z,101482.66
2022-08-02T04:08:35.165Z,101478.97
2022-08-02T04:11:02.992Z,101479.81
2022-08-02T04:13:35.978Z,101489.69
2022-08-02T04:16:08.956Z,101493.03
2022-08-02T04:18:39.147Z,101501.72
2022-08-02T04:21:06.418Z,101501.56
2022-08-02T04:23:34.535Z,101503.88
2022-08-02T04:26:03.565Z,101493.53
2022-08-02T04:28:35.700Z,101493.03
2022-08-02T04:31:02.393Z,101495.34
2022-08-02T04:33:30.975Z,101489.50
2022-08-02T04:35:59.709Z,101491.19
2022-08-02T04:38:26.407Z,101491.03
2022-08-02T04:40:54.187Z,101487.16
2022-08-02T04:43:20.987Z,101490.50
2022-08-02T04:45:48.241Z,101495.50
2022-08-02T04:48:14.564Z,101494.50
2022-08-02T04:50:42.244Z,101490.84
2022-08-02T04:53:08.579Z,101491.00
2022-08-02T04:55:34.967Z,101502.53
2022-08-02T04:58:04.114Z,101500.53
2022-08-02T05:00:36.185Z,101501.84
2022-08-02T05:03:02.534Z,101496.34
2022-08-02T05:05:28.880Z,101495.31
2022-08-02T05:07:56.953Z,101493.16
2022-08-02T05:10:23.427Z,101487.28
2022-08-02T05:12:49.790Z,101484.09
2022-08-02T05:15:16.125Z,101485.44
2022-08-02T05:17:47.431Z,101488.75
2022-08-02T05:20:15.423Z,101489.09
2022-08-02T05:22:41.882Z,101486.91
2022-08-02T05:25:10.312Z,101489.91
2022-08-02T05:27:36.627Z,101488.41
2022-08-02T05:30:03.628Z,101492.22
2022-08-02T05:32:29.947Z,101495.72
2022-08-02T05:34:56.287Z,101491.84
2022-08-02T05:37:22.633Z,101487.66
2022-08-02T05:39:55.928Z,101490.63
2022-08-02T05:42:24.135Z,101489.59
2022-08-02T05:44:50.570Z,101485.22
2022-08-02T05:47:17.087Z,101476.47
2022-08-02T05:49:43.415Z,101475.56
2022-08-02T05:52:14.544Z,101478.38
2022-08-02T05:54:47.034Z,101480.00
2022-08-02T05:57:16.940Z,101485.31
2022-08-02T05:59:50.258Z,101491.47
2022-08-02T06:02:27.379Z,101477.63
2022-08-02T06:04:59.402Z,101481.13
2022-08-02T06:07:25.759Z,101478.84
2022-08-02T06:09:52.498Z,101481.44
2022-08-02T06:12:19.563Z,101491.75
2022-08-02T06:14:51.399Z,101488.97
2022-08-02T06:17:20.958Z,101492.88
2022-08-02T06:19:52.390Z,101492.44
2022-08-02T06:22:34.575Z,101493.66
2022-08-02T06:25:03.479Z,101498.19
2022-08-02T06:27:30.129Z,101498.84
2022-08-02T06:29:58.038Z,101503.66
2022-08-02T06:32:26.519Z,101495.19
2022-08-02T06:34:52.839Z,101498.66
2022-08-02T06:37:24.270Z,101496.72
2022-08-02T06:39:54.530Z,101495.94
2022-08-02T06:42:26.905Z,101495.56
2022-08-02T06:44:57.235Z,101492.50
2022-08-02T06:47:25.900Z,101496.44
2022-08-02T06:49:54.316Z,101498.75
2022-08-02T06:52:27.132Z,101495.28
2022-08-02T06:54:55.076Z,101494.38
2022-08-02T06:57:21.386Z,101491.09
2022-08-02T06:59:47.704Z,101487.66
2022-08-02T07:02:14.325Z,101490.56
2022-08-02T07:04:42.196Z,101491.06
2022-08-02T07:07:08.547Z,101497.16
2022-08-02T07:09:34.919Z,101503.22
2022-08-02T07:12:01.241Z,101498.34
2022-08-02T07:14:27.599Z,101503.75
2022-08-02T07:16:53.931Z,101492.03
2022-08-02T07:19:20.268Z,101496.84
2022-08-02T07:21:56.722Z,101483.06
2022-08-02T07:24:26.740Z,101485.38
2022-08-02T07:27:10.501Z,101480.84
2022-08-02T07:29:46.548Z,101488.34
2022-08-02T07:32:13.968Z,101488.19
2022-08-02T07:34:40.639Z,101488.03
2022-08-02T07:37:23.503Z,101481.59
2022-08-02T07:39:56.692Z,101478.72
2022-08-02T07:42:23.462Z,101479.78
2022-08-02T07:44:49.962Z,101476.25
2022-08-02T07:47:16.332Z,101481.25
2022-08-02T07:49:42.664Z,101479.81
2022-08-02T07:52:10.720Z,101479.59
2022-08-02T07:54:37.195Z,101476.91
2022-08-02T07:57:03.723Z,101476.53
2022-08-02T07:59:30.148Z,101470.53
2022-08-02T08:01:56.588Z,101467.44
2022-08-02T08:04:23.063Z,101467.00
2022-08-02T08:06:49.396Z,101477.41
2022-08-02T08:09:17.179Z,101475.94
2022-08-02T08:11:43.536Z,101481.56
2022-08-02T08:14:14.670Z,101477.41
2022-08-02T08:16:42.988Z,101483.19
2022-08-02T08:19:09.487Z,101493.19
2022-08-02T08:21:35.806Z,101480.91
2022-08-02T08:24:02.158Z,101481.09
2022-08-02T08:26:29.859Z,101479.59
2022-08-02T08:28:56.208Z,101478.31
2022-08-02T08:31:22.540Z,101481.66
2022-08-02T08:33:48.898Z,101483.91
2022-08-02T08:36:15.246Z,101478.47
2022-08-02T08:38:41.569Z,101477.22
2022-08-02T08:41:08.419Z,101481.78
2022-08-02T08:43:38.248Z,101469.91
2022-08-02T08:46:04.887Z,101474.03
2022-08-02T08:48:32.938Z,101466.69
2022-08-02T08:51:01.958Z,101468.50
2022-08-02T08:53:36.876Z,101461.91
2022-08-02T08:56:04.211Z,101463.88
2022-08-02T08:58:30.661Z,101462.56
2022-08-02T09:00:58.784Z,101458.53
2022-08-02T09:03:25.253Z,101458.03
2022-08-02T09:05:51.622Z,101462.13
2022-08-02T09:08:17.948Z,101454.78
2022-08-02T09:10:44.901Z,101462.59
2022-08-02T09:13:38.390Z,101466.69
2022-08-02T09:16:13.028Z,101460.00
2022-08-02T09:18:41.457Z,101460.00
2022-08-02T09:21:08.459Z,101463.31
2022-08-02T09:23:36.124Z,101453.97
2022-08-02T09:26:07.413Z,101460.44
2022-08-02T09:28:34.935Z,101463.31
2022-08-02T09:31:09.219Z,101463.09
2022-08-02T09:33:36.215Z,101465.19
2022-08-02T09:36:06.454Z,101456.16
2022-08-02T09:38:35.153Z,101462.69
2022-08-02T09:41:01.735Z,101459.28
2022-08-02T09:43:37.895Z,101457.00
2022-08-02T09:46:27.084Z,101460.13
2022-08-02T09:48:54.659Z,101454.31
2022-08-02T09:51:22.368Z,101456.63
2022-08-02T09:53:49.948Z,101449.97
2022-08-02T09:56:30.245Z,101446.78
2022-08-02T09:59:06.197Z,101453.53
2022-08-02T10:01:37.357Z,101446.59
2022-08-02T10:04:04.956Z,101440.72
2022-08-02T10:06:31.628Z,101457.28
2022-08-02T10:08:58.481Z,101459.03
2022-08-02T10:11:25.954Z,101452.31
2022-08-02T10:13:53.020Z,101454.38
2022-08-02T10:16:20.527Z,101453.78
2022-08-02T10:18:48.734Z,101453.63
2022-08-02T10:21:19.423Z,101454.47
2022-08-02T10:23:46.206Z,101445.34
2022-08-02T10:26:14.541Z,101450.22
2022-08-02T10:28:42.309Z,101444.53
2022-08-02T10:31:10.136Z,101439.09
2022-08-02T10:33:38.098Z,101440.00
2022-08-02T10:36:07.812Z,101435.97
2022-08-02T10:38:35.351Z,101440.69
2022-08-02T10:41:01.726Z,101435.44
2022-08-02T10:43:41.204Z,101432.91
2022-08-02T10:46:20.449Z,101434.19
2022-08-02T10:49:01.431Z,101427.53
2022-08-02T10:51:52.696Z,101417.66
2022-08-02T10:54:19.891Z,101411.53
2022-08-02T10:56:46.853Z,101419.84
2022-08-02T10:59:27.200Z,101420.06
2022-08-02T11:01:53.757Z,101421.97
2022-08-02T11:04:28.466Z,101420.72
2022-08-02T11:07:09.410Z,101418.81
2022-08-02T11:09:35.750Z,101416.66
2022-08-02T11:12:03.592Z,101421.53
2022-08-02T11:14:30.437Z,101416.34
2022-08-02T11:17:07.462Z,101419.53
2022-08-02T11:19:33.975Z,101418.47
2022-08-02T11:22:00.764Z,101407.94
2022-08-02T11:24:29.508Z,101414.97
2022-08-02T11:26:56.216Z,101412.09
2022-08-02T11:29:31.222Z,101408.28
2022-08-02T11:31:57.902Z,101402.31
2022-08-02T11:34:37.050Z,101411.47
2022-08-02T11:37:04.619Z,101403.75
2022-08-02T11:39:32.607Z,101412.47
2022-08-02T11:42:00.075Z,101418.75
2022-08-02T11:44:27.306Z,101414.22
2022-08-02T11:46:54.504Z,101415.09
2022-08-02T11:49:20.948Z,101411.56
2022-08-02T11:51:54.452Z,101409.50
2022-08-02T11:54:25.180Z,101404.22
2022-08-02T11:56:52.926Z,101402.41
2022-08-02T11:59:19.313Z,101414.19
2022-08-02T12:01:46.547Z,101406.31
2022-08-02T12:04:16.012Z,101413.44
2022-08-02T12:06:42.522Z,101402.31
2022-08-02T12:09:17.940Z,101404.66
2022-08-02T12:11:47.891Z,101389.50
2022-08-02T12:14:15.566Z,101395.69
2022-08-02T12:16:41.950Z,101396.63
2022-08-02T12:19:08.368Z,101387.13
2022-08-02T12:21:36.364Z,101396.59
2022-08-02T12:24:02.900Z,101393.16
2022-08-02T12:26:29.375Z,101390.97
2022-08-02T12:28:56.464Z,101392.59
2022-08-02T12:31:38.805Z,101390.03
2022-08-02T12:34:32.086Z,101383.00
2022-08-02T12:37:03.290Z,101378.75
2022-08-02T12:39:37.208Z,101385.06
2022-08-02T12:42:04.138Z,101382.56
2022-08-02T12:44:30.528Z,101386.38
2022-08-02T12:47:03.941Z,101380.94
2022-08-02T12:49:30.917Z,101372.75
2022-08-02T12:52:02.232Z,101379.66
2022-08-02T12:54:39.118Z,101378.84
2022-08-02T12:57:10.844Z,101372.22
2022-08-02T12:59:39.212Z,101367.78
2022-08-02T13:02:09.603Z,101364.78
2022-08-02T13:04:36.314Z,101364.53
2022-08-02T13:07:03.652Z,101358.31
2022-08-02T13:09:35.043Z,101366.00
2022-08-02T13:12:01.377Z,101359.66
2022-08-02T13:14:27.747Z,101361.75
2022-08-02T13:16:54.109Z,101354.25
2022-08-02T13:19:21.813Z,101350.41
2022-08-02T13:22:01.325Z,101353.00
2022-08-02T13:24:40.738Z,101345.81
2022-08-02T13:27:15.816Z,101348.78
2022-08-02T13:29:42.206Z,101344.06
2022-08-02T13:32:08.551Z,101341.00
2022-08-02T13:34:36.496Z,101341.25
2022-08-02T13:37:03.297Z,101343.47
2022-08-02T13:39:29.749Z,101338.84
2022-08-02T13:41:56.093Z,101340.44
2022-08-02T13:44:22.503Z,101335.56
2022-08-02T13:46:48.969Z,101330.41
2022-08-02T13:49:19.367Z,101335.94
2022-08-02T13:51:48.358Z,101334.06
2022-08-02T13:54:14.817Z,101333.50
2022-08-02T13:56:41.296Z,101325.56
2022-08-02T13:59:56.996Z,101320.09
2022-08-02T14:01:54.168Z,101316.28
2022-08-02T14:04:20.892Z,101317.63
2022-08-02T14:06:48.656Z,101326.38
2022-08-02T14:09:16.810Z,101322.06
2022-08-02T14:11:43.733Z,101317.09
2022-08-02T14:14:15.818Z,101314.34
2022-08-02T14:16:44.282Z,101316.03
2022-08-02T14:19:15.548Z,101307.56
2022-08-02T14:21:46.717Z,101307.84
2022-08-02T14:24:15.457Z,101304.28
2022-08-02T14:26:41.800Z,101303.44
2022-08-02T14:29:08.281Z,101302.94
2022-08-02T14:31:34.663Z,101308.41
2022-08-02T14:34:01.014Z,101303.19
2022-08-02T14:36:28.167Z,101302.06
2022-08-02T14:38:54.691Z,101302.34
2022-08-02T14:41:22.413Z,101300.38
2022-08-02T14:43:48.744Z,101293.88
2022-08-02T14:46:15.371Z,101294.75
2022-08-02T14:48:41.726Z,101290.63
2022-08-02T14:51:08.103Z,101292.53
2022-08-02T14:53:37.951Z,101297.47
2022-08-02T14:56:16.122Z,101291.19
2022-08-02T14:58:43.820Z,101285.47
2022-08-02T15:01:10.210Z,101280.00
2022-08-02T15:03:43.190Z,101277.28
2022-08-02T15:06:10.233Z,101280.00
2022-08-02T15:08:36.610Z,101275.63
2022-08-02T15:11:02.944Z,101277.78
2022-08-02T15:13:29.299Z,101270.69
2022-08-02T15:15:56.984Z,101270.69
2022-08-02T15:18:23.334Z,101274.81
2022-08-02T15:20:57.246Z,101276.19
2022-08-02T15:23:24.490Z,101266.03
2022-08-02T15:26:01.327Z,101269.03
2022-08-02T15:28:27.667Z,101272.31
2022-08-02T15:30:54.008Z,101274.72
2022-08-02T15:33:21.737Z,101270.03
2022-08-02T15:35:48.086Z,101266.19
2022-08-02T15:38:14.407Z,101258.00
2022-08-02T15:40:40.758Z,101255.28
2022-08-02T15:43:07.254Z,101261.84
2022-08-02T15:45:34.353Z,101261.84
2022-08-02T15:48:00.941Z,101252.06
2022-08-02T15:50:31.286Z,101255.88
2022-08-02T15:52:57.643Z,101251.50
2022-08-02T15:55:23.998Z,101249.28
2022-08-02T15:57:50.340Z,101240.53
2022-08-02T16:00:18.657Z,101251.47
2022-08-02T16:02:45.361Z,101242.69
2022-08-02T16:05:14.413Z,101239.41
2022-08-02T16:07:42.168Z,101236.66
2022-08-02T16:10:08.900Z,101232.88
2022-08-02T16:12:35.241Z,101232.59
2022-08-02T16:15:01.588Z,101234.25
2022-08-02T16:17:53.945Z,101235.59
2022-08-02T16:20:14.405Z,101224.66
2022-08-02T16:22:42.081Z,101229.56
2022-08-02T16:25:08.580Z,101230.66
2022-08-02T16:28:05.908Z,101226.25
2022-08-02T16:30:22.508Z,101218.59
2022-08-02T16:32:48.838Z,101221.88
2022-08-02T16:35:15.278Z,101220.25
2022-08-02T16:37:52.160Z,101224.63
2022-08-02T16:40:19.214Z,101223.25
2022-08-02T16:42:50.784Z,101216.91
2022-08-02T16:48:05.466Z,101221.22
2022-08-02T16:50:32.271Z,101217.69
2022-08-02T16:52:59.999Z,101218.25
2022-08-02T16:55:33.541Z,101212.59
2022-08-02T16:57:59.855Z,101209.56
2022-08-02T17:00:26.232Z,101207.34
2022-08-02T17:02:52.798Z,101201.06
2022-08-02T17:05:19.145Z,101204.34
2022-08-02T17:08:08.465Z,101201.09
2022-08-02T17:10:35.841Z,101206.06
2022-08-02T17:13:11.081Z,101197.63
2022-08-02T17:16:16.987Z,101195.47
2022-08-02T17:18:26.627Z,101198.56
2022-08-02T17:20:53.177Z,101203.56
2022-08-02T17:23:19.514Z,101200.34
2022-08-02T17:25:52.445Z,101200.00
2022-08-02T17:28:19.196Z,101205.66
2022-08-02T17:30:45.530Z,101205.59
2022-08-02T17:33:11.868Z,101203.34
2022-08-02T17:35:43.447Z,101211.75
2022-08-02T17:38:10.299Z,101213.88
2022-08-02T17:40:36.819Z,101208.63
2022-08-02T17:43:14.725Z,101205.53
2022-08-02T17:45:59.848Z,101216.66
2022-08-02T17:48:29.316Z,101208.47
2022-08-02T17:51:03.477Z,101213.09
2022-08-02T17:56:16.143Z,101213.25
2022-08-02T17:58:51.922Z,101208.84
2022-08-02T18:01:24.251Z,101213.41
2022-08-02T18:03:51.015Z,101213.69
2022-08-02T18:06:21.056Z,101216.09
2022-08-02T18:08:52.522Z,101211.50
2022-08-02T18:11:18.872Z,101213.16
2022-08-02T18:14:06.569Z,101216.22
2022-08-02T18:16:33.037Z,101218.66
2022-08-02T18:19:02.952Z,101216.16
2022-08-02T18:21:31.649Z,101219.72
2022-08-02T18:23:59.168Z,101221.94
2022-08-02T18:26:27.233Z,101217.44
2022-08-02T18:28:53.700Z,101223.47
2022-08-02T18:31:22.788Z,101224.50
2022-08-02T18:33:55.814Z,101220.72
2022-08-02T18:36:25.413Z,101221.84
2022-08-02T18:38:52.042Z,101222.16
2022-08-02T18:41:18.723Z,101210.75
2022-08-02T18:43:47.880Z,101215.97
2022-08-02T18:46:16.379Z,101206.00
2022-08-02T18:48:46.433Z,101211.53
2022-08-02T18:51:14.741Z,101214.91
2022-08-02T18:53:42.877Z,101212.56
2022-08-02T18:56:10.673Z,101215.91
2022-08-02T18:58:46.892Z,101211.63
2022-08-02T19:01:21.937Z,101212.56
2022-08-02T19:04:01.316Z,101216.97
2022-08-02T19:06:29.156Z,101217.53
2022-08-02T19:09:05.837Z,101210.53
2022-08-02T19:11:37.862Z,101209.78
2022-08-02T19:14:04.478Z,101217.25
2022-08-02T19:16:37.080Z,101212.66
2022-08-02T19:19:05.960Z,101205.38
2022-08-02T19:22:18.199Z,101209.81
2022-08-02T19:24:18.972Z,101209.06
2022-08-02T19:26:52.079Z,101212.66
2022-08-02T19:29:19.518Z,101207.00
2022-08-02T19:32:05.900Z,101211.41
2022-08-02T19:34:53.560Z,101215.22
2022-08-02T19:37:19.904Z,101211.19
2022-08-02T19:39:46.247Z,101218.88
2022-08-02T19:42:14.557Z,101226.59
2022-08-02T19:44:45.065Z,101226.72
2022-08-02T19:47:12.209Z,101227.66
2022-08-02T19:49:40.347Z,101216.09
2022-08-02T19:52:21.194Z,101234.13
2022-08-02T19:54:55.401Z,101220.44
2022-08-02T19:57:23.309Z,101232.22
2022-08-02T19:59:51.995Z,101236.72
2022-08-02T20:02:19.038Z,101228.69
2022-08-02T20:04:46.494Z,101235.06
2022-08-02T20:07:24.230Z,101234.34
2022-08-02T20:10:04.877Z,101223.81
2022-08-02T20:12:36.852Z,101233.97
2022-08-02T20:15:07.840Z,101228.88
2022-08-02T20:17:47.205Z,101228.97
2022-08-02T20:20:14.817Z,101224.44
2022-08-02T20:22:42.537Z,101234.59
2022-08-02T20:25:10.041Z,101223.81
2022-08-02T20:27:51.012Z,101225.34
2022-08-02T20:30:17.869Z,101232.28
2022-08-02T20:32:52.751Z,101235.00
2022-08-02T20:35:22.705Z,101231.91
2022-08-02T20:37:59.381Z,101225.31
2022-08-02T20:40:29.089Z,101233.06
2022-08-02T20:42:55.415Z,101233.75
2022-08-02T20:45:22.380Z,101227.72
2022-08-02T20:47:49.749Z,101228.41
2022-08-02T20:50:17.526Z,101228.88
2022-08-02T20:52:44.568Z,101229.78
2022-08-02T20:55:17.249Z,101226.09
2022-08-02T20:58:00.537Z,101227.63
2022-08-02T21:00:28.034Z,101225.59
2022-08-02T21:02:54.389Z,101223.53
2022-08-02T21:05:20.739Z,101226.31
2022-08-02T21:08:07.195Z,101229.13
2022-08-02T21:10:43.422Z,101223.53
2022-08-02T21:13:18.609Z,101233.41
2022-08-02T21:15:45.680Z,101233.63
2022-08-02T21:18:14.375Z,101222.63
2022-08-02T21:20:53.310Z,101224.38
2022-08-02T21:23:20.056Z,101224.81
2022-08-02T21:25:56.912Z,101237.72
2022-08-02T21:28:24.064Z,101241.75
2022-08-02T21:31:01.507Z,101229.94
2022-08-02T21:33:29.264Z,101239.69
2022-08-02T21:36:15.592Z,101235.56
2022-08-02T21:38:42.009Z,101233.91
2022-08-02T21:41:11.312Z,101234.72
2022-08-02T21:43:39.094Z,101235.38
2022-08-02T21:46:05.620Z,101240.59
2022-08-02T21:48:32.012Z,101234.59
2022-08-02T21:50:58.376Z,101243.75
2022-08-02T21:53:42.160Z,101239.41
2022-08-02T21:56:10.816Z,101244.81
2022-08-02T21:58:37.148Z,101243.16
2022-08-02T22:01:03.734Z,101244.41
2022-08-02T22:03:30.250Z,101248.81
2022-08-02T22:05:56.580Z,101241.59
2022-08-02T22:08:22.914Z,101243.06
2022-08-02T22:10:50.261Z,101246.06
2022-08-02T22:13:19.151Z,101246.25
2022-08-02T22:15:46.611Z,101249.03
2022-08-02T22:18:14.353Z,101249.88
2022-08-02T22:20:40.930Z,101249.09
2022-08-02T22:23:12.973Z,101252.44
2022-08-02T22:25:49.222Z,101255.81
2022-08-02T22:31:04.847Z,101259.81
2022-08-02T22:33:33.494Z,101263.31
2022-08-02T22:36:00.346Z,101266.44
2022-08-02T22:38:26.716Z,101262.53
2022-08-02T22:40:53.152Z,101257.75
2022-08-02T22:43:23.080Z,101265.50
2022-08-02T22:45:49.888Z,101259.88
2022-08-02T22:48:17.582Z,101263.44
2022-08-02T22:50:43.996Z,101257.63
2022-08-02T22:53:10.414Z,101264.50
2022-08-02T22:55:41.610Z,101264.31
2022-08-02T22:58:08.731Z,101259.13
2022-08-02T22:58:34.617Z,101219.06
2022-08-02T22:58:48.942Z,101214.97
2022-08-02T22:59:12.384Z,101255.41
2022-08-02T23:00:35.056Z,101259.13
2022-08-02T23:03:01.378Z,101258.72
2022-08-02T23:05:30.978Z,101269.94
2022-08-02T23:07:57.546Z,101268.88
2022-08-02T23:10:23.905Z,101258.91
2022-08-02T23:12:50.303Z,101257.69
2022-08-02T23:15:16.646Z,101263.69
2022-08-02T23:17:43.161Z,101269.97
2022-08-02T23:20:09.750Z,101276.22
2022-08-02T23:22:37.663Z,101280.56
2022-08-02T23:25:04.268Z,101290.34
2022-08-02T23:27:31.034Z,101284.94
2022-08-02T23:29:57.700Z,101284.50
2022-08-02T23:32:25.744Z,101290.53
2022-08-02T23:34:52.310Z,101286.38
2022-08-02T23:37:18.668Z,101284.72
2022-08-02T23:39:47.676Z,101273.53
2022-08-02T23:42:14.352Z,101273.31
2022-08-02T23:44:40.975Z,101280.97
2022-08-02T23:47:07.348Z,101277.69
2022-08-02T23:49:33.906Z,101273.53
2022-08-02T23:52:01.967Z,101272.28
2022-08-02T23:54:28.970Z,101272.09
2022-08-02T23:56:56.764Z,101270.63
2022-08-02T23:59:23.155Z,101267.28
